sensor_id;sensor_type;location;lat;lon;timestamp;temperature;humidity
13488;DHT22;6816;48.506;9.050;2022-11-21T00:01:26;7.50;99.90
13488;DHT22;6816;48.506;9.050;2022-11-21T00:04:27;7.50;99.90
13488;DHT22;6816;48.506;9.050;2022-11-21T00:07:27;7.60;99.90
13488;DHT22;6816;48.506;9.050;2022-11-21T00:10:28;7.50;99.90
13488;DHT22;6816;48.506;9.050;2022-11-21T00:13:28;7.50;99.90
13488;DHT22;6816;48.506;9.050;2022-11-21T00:16:29;7.50;99.90
13488;DHT22;6816;48.506;9.050;2022-11-21T00:19:30;7.50;99.90
13488;DHT22;6816;48.506;9.050;2022-11-21T00:22:31;7.40;99.90
13488;DHT22;6816;48.506;9.050;2022-11-21T00:25:31;7.40;99.90
13488;DHT22;6816;48.506;9.050;2022-11-21T00:28:33;7.40;99.90
13488;DHT22;6816;48.506;9.050;2022-11-21T00:31:33;7.30;99.90
13488;DHT22;6816;48.506;9.050;2022-11-21T00:34:34;7.30;99.90
13488;DHT22;6816;48.506;9.050;2022-11-21T00:37:34;7.20;99.90
13488;DHT22;6816;48.506;9.050;2022-11-21T00:40:35;7.20;99.90
13488;DHT22;6816;48.506;9.050;2022-11-21T00:43:36;7.10;99.90
13488;DHT22;6816;48.506;9.050;2022-11-21T00:46:36;7.20;99.90
13488;DHT22;6816;48.506;9.050;2022-11-21T00:49:37;7.00;99.90
13488;DHT22;6816;48.506;9.050;2022-11-21T00:52:37;7.00;99.90
13488;DHT22;6816;48.506;9.050;2022-11-21T00:55:38;6.90;99.90
13488;DHT22;6816;48.506;9.050;2022-11-21T00:58:39;6.90;99.90
13488;DHT22;6816;48.506;9.050;2022-11-21T01:01:39;6.80;99.90
13488;DHT22;6816;48.506;9.050;2022-11-21T01:04:40;6.80;99.90
13488;DHT22;6816;48.506;9.050;2022-11-21T01:07:41;6.80;99.90
13488;DHT22;6816;48.506;9.050;2022-11-21T01:10:41;6.70;99.90
13488;DHT22;6816;48.506;9.050;2022-11-21T01:13:42;6.80;99.90
13488;DHT22;6816;48.506;9.050;2022-11-21T01:16:43;6.80;99.90
13488;DHT22;6816;48.506;9.050;2022-11-21T01:19:44;6.60;99.90
13488;DHT22;6816;48.506;9.050;2022-11-21T01:22:44;6.60;99.90
13488;DHT22;6816;48.506;9.050;2022-11-21T01:25:45;6.70;99.90
13488;DHT22;6816;48.506;9.050;2022-11-21T01:28:46;6.70;99.90
13488;DHT22;6816;48.506;9.050;2022-11-21T01:31:46;6.70;99.90
13488;DHT22;6816;48.506;9.050;2022-11-21T01:34:47;6.70;99.90
13488;DHT22;6816;48.506;9.050;2022-11-21T01:37:48;6.80;99.90
13488;DHT22;6816;48.506;9.050;2022-11-21T01:40:49;6.90;99.90
13488;DHT22;6816;48.506;9.050;2022-11-21T01:43:50;6.80;99.90
13488;DHT22;6816;48.506;9.050;2022-11-21T01:46:51;6.90;99.90
13488;DHT22;6816;48.506;9.050;2022-11-21T01:49:52;7.00;99.90
13488;DHT22;6816;48.506;9.050;2022-11-21T01:52:53;7.00;99.90
13488;DHT22;6816;48.506;9.050;2022-11-21T01:55:54;7.10;99.90
13488;DHT22;6816;48.506;9.050;2022-11-21T01:58:57;7.10;99.90
13488;DHT22;6816;48.506;9.050;2022-11-21T02:02:01;7.10;99.90
13488;DHT22;6816;48.506;9.050;2022-11-21T02:05:05;7.20;99.90
13488;DHT22;6816;48.506;9.050;2022-11-21T02:08:12;7.20;99.90
13488;DHT22;6816;48.506;9.050;2022-11-21T02:11:20;7.20;99.90
13488;DHT22;6816;48.506;9.050;2022-11-21T02:14:23;7.30;99.90
13488;DHT22;6816;48.506;9.050;2022-11-21T02:17:25;7.30;99.90
13488;DHT22;6816;48.506;9.050;2022-11-21T02:20:28;7.40;99.90
13488;DHT22;6816;48.506;9.050;2022-11-21T02:23:44;7.40;99.90
13488;DHT22;6816;48.506;9.050;2022-11-21T02:26:48;7.40;99.90
13488;DHT22;6816;48.506;9.050;2022-11-21T02:29:49;7.40;99.90
13488;DHT22;6816;48.506;9.050;2022-11-21T02:32:50;7.50;99.90
13488;DHT22;6816;48.506;9.050;2022-11-21T02:35:58;7.60;99.90
13488;DHT22;6816;48.506;9.050;2022-11-21T02:38:59;7.50;99.90
13488;DHT22;6816;48.506;9.050;2022-11-21T02:42:08;7.50;99.90
13488;DHT22;6816;48.506;9.050;2022-11-21T02:45:19;7.50;99.90
13488;DHT22;6816;48.506;9.050;2022-11-21T02:48:20;7.50;99.90
13488;DHT22;6816;48.506;9.050;2022-11-21T02:51:21;7.50;99.90
13488;DHT22;6816;48.506;9.050;2022-11-21T02:54:21;7.60;99.90
13488;DHT22;6816;48.506;9.050;2022-11-21T02:57:22;7.50;99.90
13488;DHT22;6816;48.506;9.050;2022-11-21T03:00:23;7.60;99.90
13488;DHT22;6816;48.506;9.050;2022-11-21T03:03:23;7.70;99.90
13488;DHT22;6816;48.506;9.050;2022-11-21T03:06:24;7.50;99.90
13488;DHT22;6816;48.506;9.050;2022-11-21T03:09:25;7.50;99.90
13488;DHT22;6816;48.506;9.050;2022-11-21T03:12:25;7.50;99.90
13488;DHT22;6816;48.506;9.050;2022-11-21T03:15:28;7.60;99.90
13488;DHT22;6816;48.506;9.050;2022-11-21T03:18:29;7.50;99.90
13488;DHT22;6816;48.506;9.050;2022-11-21T03:21:30;7.50;99.90
13488;DHT22;6816;48.506;9.050;2022-11-21T03:24:30;7.60;99.90
13488;DHT22;6816;48.506;9.050;2022-11-21T03:27:31;7.60;99.90
13488;DHT22;6816;48.506;9.050;2022-11-21T03:30:31;7.60;99.90
13488;DHT22;6816;48.506;9.050;2022-11-21T03:33:32;7.60;99.90
13488;DHT22;6816;48.506;9.050;2022-11-21T03:36:33;7.60;99.90
13488;DHT22;6816;48.506;9.050;2022-11-21T03:39:33;7.50;99.90
13488;DHT22;6816;48.506;9.050;2022-11-21T03:42:34;7.50;99.90
13488;DHT22;6816;48.506;9.050;2022-11-21T03:45:35;7.50;99.90
13488;DHT22;6816;48.506;9.050;2022-11-21T03:48:35;7.50;99.90
13488;DHT22;6816;48.506;9.050;2022-11-21T03:51:36;7.50;99.90
13488;DHT22;6816;48.506;9.050;2022-11-21T03:54:37;7.50;99.90
13488;DHT22;6816;48.506;9.050;2022-11-21T03:57:38;7.50;99.90
13488;DHT22;6816;48.506;9.050;2022-11-21T04:00:38;7.40;99.90
13488;DHT22;6816;48.506;9.050;2022-11-21T04:03:40;7.40;99.90
13488;DHT22;6816;48.506;9.050;2022-11-21T04:06:41;7.40;99.90
13488;DHT22;6816;48.506;9.050;2022-11-21T04:09:42;7.30;99.90
13488;DHT22;6816;48.506;9.050;2022-11-21T04:12:42;7.30;99.90
13488;DHT22;6816;48.506;9.050;2022-11-21T04:15:43;7.20;99.90
13488;DHT22;6816;48.506;9.050;2022-11-21T04:18:44;7.20;99.90
13488;DHT22;6816;48.506;9.050;2022-11-21T04:21:45;7.10;99.90
13488;DHT22;6816;48.506;9.050;2022-11-21T04:24:45;7.10;99.90
13488;DHT22;6816;48.506;9.050;2022-11-21T04:27:46;7.10;99.90
13488;DHT22;6816;48.506;9.050;2022-11-21T04:30:47;7.10;99.90
13488;DHT22;6816;48.506;9.050;2022-11-21T04:33:48;7.00;99.90
13488;DHT22;6816;48.506;9.050;2022-11-21T04:36:48;7.00;99.90
13488;DHT22;6816;48.506;9.050;2022-11-21T04:39:49;7.00;99.90
13488;DHT22;6816;48.506;9.050;2022-11-21T04:42:49;6.80;99.90
13488;DHT22;6816;48.506;9.050;2022-11-21T04:45:50;6.70;99.90
13488;DHT22;6816;48.506;9.050;2022-11-21T04:48:51;6.70;99.90
13488;DHT22;6816;48.506;9.050;2022-11-21T04:51:51;6.60;99.90
13488;DHT22;6816;48.506;9.050;2022-11-21T04:54:52;6.70;99.90
13488;DHT22;6816;48.506;9.050;2022-11-21T04:57:52;6.50;99.90
13488;DHT22;6816;48.506;9.050;2022-11-21T05:00:53;6.50;99.90
13488;DHT22;6816;48.506;9.050;2022-11-21T05:03:54;6.40;99.90
13488;DHT22;6816;48.506;9.050;2022-11-21T05:06:54;6.40;99.90
13488;DHT22;6816;48.506;9.050;2022-11-21T05:09:55;6.30;99.90
13488;DHT22;6816;48.506;9.050;2022-11-21T05:12:57;6.20;99.90
13488;DHT22;6816;48.506;9.050;2022-11-21T05:16:17;6.20;99.90
13488;DHT22;6816;48.506;9.050;2022-11-21T05:19:17;6.10;99.90
13488;DHT22;6816;48.506;9.050;2022-11-21T05:22:18;6.10;99.90
13488;DHT22;6816;48.506;9.050;2022-11-21T05:25:19;6.00;99.90
13488;DHT22;6816;48.506;9.050;2022-11-21T05:28:19;5.90;99.90
13488;DHT22;6816;48.506;9.050;2022-11-21T05:31:20;5.80;99.90
13488;DHT22;6816;48.506;9.050;2022-11-21T05:34:20;5.70;99.90
13488;DHT22;6816;48.506;9.050;2022-11-21T05:37:22;5.70;99.90
13488;DHT22;6816;48.506;9.050;2022-11-21T05:40:23;5.70;99.90
13488;DHT22;6816;48.506;9.050;2022-11-21T05:43:24;5.60;99.90
13488;DHT22;6816;48.506;9.050;2022-11-21T05:46:43;5.60;99.90
13488;DHT22;6816;48.506;9.050;2022-11-21T05:49:44;5.60;99.90
13488;DHT22;6816;48.506;9.050;2022-11-21T05:52:45;5.60;99.90
13488;DHT22;6816;48.506;9.050;2022-11-21T05:55:45;5.50;99.90
13488;DHT22;6816;48.506;9.050;2022-11-21T05:58:46;5.50;99.90
13488;DHT22;6816;48.506;9.050;2022-11-21T06:01:47;5.50;99.90
13488;DHT22;6816;48.506;9.050;2022-11-21T06:05:06;5.50;99.90
13488;DHT22;6816;48.506;9.050;2022-11-21T06:08:07;5.40;99.90
13488;DHT22;6816;48.506;9.050;2022-11-21T06:11:13;5.40;99.90
13488;DHT22;6816;48.506;9.050;2022-11-21T06:14:14;5.40;99.90
13488;DHT22;6816;48.506;9.050;2022-11-21T06:17:14;5.30;99.90
13488;DHT22;6816;48.506;9.050;2022-11-21T06:20:15;5.40;99.90
13488;DHT22;6816;48.506;9.050;2022-11-21T06:23:16;5.40;99.90
13488;DHT22;6816;48.506;9.050;2022-11-21T06:26:19;5.40;99.90
13488;DHT22;6816;48.506;9.050;2022-11-21T06:29:20;5.40;99.90
13488;DHT22;6816;48.506;9.050;2022-11-21T06:32:21;5.40;99.90
13488;DHT22;6816;48.506;9.050;2022-11-21T06:35:22;5.40;99.90
13488;DHT22;6816;48.506;9.050;2022-11-21T06:38:22;5.40;99.90
13488;DHT22;6816;48.506;9.050;2022-11-21T06:41:25;5.50;99.90
13488;DHT22;6816;48.506;9.050;2022-11-21T06:44:26;5.50;99.90
13488;DHT22;6816;48.506;9.050;2022-11-21T06:47:26;5.50;99.90
13488;DHT22;6816;48.506;9.050;2022-11-21T06:50:27;5.60;99.90
13488;DHT22;6816;48.506;9.050;2022-11-21T06:53:29;5.50;99.90
13488;DHT22;6816;48.506;9.050;2022-11-21T06:56:30;5.60;99.90
13488;DHT22;6816;48.506;9.050;2022-11-21T06:59:31;5.60;99.90
13488;DHT22;6816;48.506;9.050;2022-11-21T07:02:31;5.70;99.90
13488;DHT22;6816;48.506;9.050;2022-11-21T07:05:32;5.80;99.90
13488;DHT22;6816;48.506;9.050;2022-11-21T07:08:34;5.80;99.90
13488;DHT22;6816;48.506;9.050;2022-11-21T07:11:35;5.90;99.90
13488;DHT22;6816;48.506;9.050;2022-11-21T07:14:36;6.00;99.90
13488;DHT22;6816;48.506;9.050;2022-11-21T07:17:36;6.20;99.90
13488;DHT22;6816;48.506;9.050;2022-11-21T07:20:37;6.20;99.90
13488;DHT22;6816;48.506;9.050;2022-11-21T07:23:38;6.20;99.90
13488;DHT22;6816;48.506;9.050;2022-11-21T07:26:39;6.30;99.90
13488;DHT22;6816;48.506;9.050;2022-11-21T07:29:39;6.30;99.90
13488;DHT22;6816;48.506;9.050;2022-11-21T07:32:40;6.40;99.90
13488;DHT22;6816;48.506;9.050;2022-11-21T07:35:40;6.40;99.90
13488;DHT22;6816;48.506;9.050;2022-11-21T07:38:45;6.50;99.90
13488;DHT22;6816;48.506;9.050;2022-11-21T07:41:46;6.50;99.90
13488;DHT22;6816;48.506;9.050;2022-11-21T07:44:46;6.60;99.90
13488;DHT22;6816;48.506;9.050;2022-11-21T07:47:47;6.50;99.90
13488;DHT22;6816;48.506;9.050;2022-11-21T07:50:47;6.50;99.90
13488;DHT22;6816;48.506;9.050;2022-11-21T07:53:48;6.60;99.90
13488;DHT22;6816;48.506;9.050;2022-11-21T07:56:48;6.60;99.90
13488;DHT22;6816;48.506;9.050;2022-11-21T07:59:49;6.60;99.90
13488;DHT22;6816;48.506;9.050;2022-11-21T08:02:50;6.60;99.90
13488;DHT22;6816;48.506;9.050;2022-11-21T08:05:51;6.60;99.90
13488;DHT22;6816;48.506;9.050;2022-11-21T08:08:52;6.70;99.90
13488;DHT22;6816;48.506;9.050;2022-11-21T08:11:53;6.80;99.90
13488;DHT22;6816;48.506;9.050;2022-11-21T08:14:54;6.90;99.90
13488;DHT22;6816;48.506;9.050;2022-11-21T08:17:54;7.00;99.90
13488;DHT22;6816;48.506;9.050;2022-11-21T08:20:55;6.90;99.90
13488;DHT22;6816;48.506;9.050;2022-11-21T08:23:55;7.00;99.90
13488;DHT22;6816;48.506;9.050;2022-11-21T08:26:58;7.10;99.90
13488;DHT22;6816;48.506;9.050;2022-11-21T08:29:58;7.20;99.90
13488;DHT22;6816;48.506;9.050;2022-11-21T08:33:00;7.40;99.90
13488;DHT22;6816;48.506;9.050;2022-11-21T08:36:05;7.40;99.90
13488;DHT22;6816;48.506;9.050;2022-11-21T08:39:05;7.60;99.90
13488;DHT22;6816;48.506;9.050;2022-11-21T08:42:06;7.70;99.90
13488;DHT22;6816;48.506;9.050;2022-11-21T08:45:07;7.80;99.90
13488;DHT22;6816;48.506;9.050;2022-11-21T08:48:09;7.90;99.90
13488;DHT22;6816;48.506;9.050;2022-11-21T08:51:11;8.00;99.90
13488;DHT22;6816;48.506;9.050;2022-11-21T08:54:11;8.10;99.90
13488;DHT22;6816;48.506;9.050;2022-11-21T08:57:12;8.20;99.90
13488;DHT22;6816;48.506;9.050;2022-11-21T09:00:13;8.40;99.90
13488;DHT22;6816;48.506;9.050;2022-11-21T09:03:14;8.40;99.90
13488;DHT22;6816;48.506;9.050;2022-11-21T09:06:14;8.50;99.90
13488;DHT22;6816;48.506;9.050;2022-11-21T09:09:15;8.50;99.90
13488;DHT22;6816;48.506;9.050;2022-11-21T09:12:15;8.70;99.90
13488;DHT22;6816;48.506;9.050;2022-11-21T09:15:16;8.60;99.90
13488;DHT22;6816;48.506;9.050;2022-11-21T09:18:35;8.60;99.90
13488;DHT22;6816;48.506;9.050;2022-11-21T09:21:36;8.60;99.90
13488;DHT22;6816;48.506;9.050;2022-11-21T09:24:36;8.60;99.90
13488;DHT22;6816;48.506;9.050;2022-11-21T09:27:37;8.60;99.90
13488;DHT22;6816;48.506;9.050;2022-11-21T09:30:38;8.60;99.90
13488;DHT22;6816;48.506;9.050;2022-11-21T09:33:39;8.60;99.90
13488;DHT22;6816;48.506;9.050;2022-11-21T09:36:40;8.60;99.90
13488;DHT22;6816;48.506;9.050;2022-11-21T09:39:40;8.70;99.90
13488;DHT22;6816;48.506;9.050;2022-11-21T09:46:12;9.00;99.90
13488;DHT22;6816;48.506;9.050;2022-11-21T09:49:15;9.10;99.90
13488;DHT22;6816;48.506;9.050;2022-11-21T09:52:19;9.30;99.90
13488;DHT22;6816;48.506;9.050;2022-11-21T10:01:43;10.00;99.90
13488;DHT22;6816;48.506;9.050;2022-11-21T10:04:45;10.30;99.90
13488;DHT22;6816;48.506;9.050;2022-11-21T10:07:46;10.30;99.90
13488;DHT22;6816;48.506;9.050;2022-11-21T10:10:57;10.50;99.90
13488;DHT22;6816;48.506;9.050;2022-11-21T10:14:10;10.60;99.90
13488;DHT22;6816;48.506;9.050;2022-11-21T10:17:30;10.80;99.90
13488;DHT22;6816;48.506;9.050;2022-11-21T10:24:03;11.20;99.90
13488;DHT22;6816;48.506;9.050;2022-11-21T10:27:29;11.50;99.90
13488;DHT22;6816;48.506;9.050;2022-11-21T10:30:31;11.70;99.90
13488;DHT22;6816;48.506;9.050;2022-11-21T10:33:33;11.90;99.90
13488;DHT22;6816;48.506;9.050;2022-11-21T10:36:42;12.00;99.90
13488;DHT22;6816;48.506;9.050;2022-11-21T10:39:49;12.10;99.90
13488;DHT22;6816;48.506;9.050;2022-11-21T10:46:32;12.20;99.90
13488;DHT22;6816;48.506;9.050;2022-11-21T10:49:33;12.20;99.90
13488;DHT22;6816;48.506;9.050;2022-11-21T10:52:43;12.20;99.90
13488;DHT22;6816;48.506;9.050;2022-11-21T10:55:59;12.30;99.90
13488;DHT22;6816;48.506;9.050;2022-11-21T10:59:19;12.50;99.90
13488;DHT22;6816;48.506;9.050;2022-11-21T11:02:23;12.70;99.90
13488;DHT22;6816;48.506;9.050;2022-11-21T11:05:25;12.90;99.90
13488;DHT22;6816;48.506;9.050;2022-11-21T11:08:26;13.10;99.90
13488;DHT22;6816;48.506;9.050;2022-11-21T11:11:28;13.20;99.90
13488;DHT22;6816;48.506;9.050;2022-11-21T11:14:31;13.20;99.90
13488;DHT22;6816;48.506;9.050;2022-11-21T11:17:33;13.10;99.90
13488;DHT22;6816;48.506;9.050;2022-11-21T11:20:37;13.00;99.90
13488;DHT22;6816;48.506;9.050;2022-11-21T11:23:38;12.80;99.90
13488;DHT22;6816;48.506;9.050;2022-11-21T11:29:49;12.80;99.90
13488;DHT22;6816;48.506;9.050;2022-11-21T11:32:50;12.70;99.90
13488;DHT22;6816;48.506;9.050;2022-11-21T11:35:51;12.80;99.90
13488;DHT22;6816;48.506;9.050;2022-11-21T11:38:56;12.80;99.90
13488;DHT22;6816;48.506;9.050;2022-11-21T11:49:25;13.20;99.90
13488;DHT22;6816;48.506;9.050;2022-11-21T11:52:31;13.40;99.90
13488;DHT22;6816;48.506;9.050;2022-11-21T11:55:44;13.60;99.90
13488;DHT22;6816;48.506;9.050;2022-11-21T11:58:56;13.80;99.90
13488;DHT22;6816;48.506;9.050;2022-11-21T12:05:24;14.10;99.60
13488;DHT22;6816;48.506;9.050;2022-11-21T12:08:42;14.00;98.30
13488;DHT22;6816;48.506;9.050;2022-11-21T12:12:06;13.90;97.30
13488;DHT22;6816;48.506;9.050;2022-11-21T12:15:18;13.70;97.10
13488;DHT22;6816;48.506;9.050;2022-11-21T12:19:02;13.40;96.90
13488;DHT22;6816;48.506;9.050;2022-11-21T12:22:04;13.20;96.60
13488;DHT22;6816;48.506;9.050;2022-11-21T12:25:12;13.00;98.90
13488;DHT22;6816;48.506;9.050;2022-11-21T12:28:25;12.80;98.00
13488;DHT22;6816;48.506;9.050;2022-11-21T12:41:52;12.30;97.40
13488;DHT22;6816;48.506;9.050;2022-11-21T12:48:52;12.00;98.20
13488;DHT22;6816;48.506;9.050;2022-11-21T12:55:43;11.70;99.90
13488;DHT22;6816;48.506;9.050;2022-11-21T12:58:48;11.70;99.20
13488;DHT22;6816;48.506;9.050;2022-11-21T13:05:30;11.60;98.80
13488;DHT22;6816;48.506;9.050;2022-11-21T13:08:35;11.60;99.90
13488;DHT22;6816;48.506;9.050;2022-11-21T13:11:44;11.60;99.90
13488;DHT22;6816;48.506;9.050;2022-11-21T13:15:18;11.60;99.90
13488;DHT22;6816;48.506;9.050;2022-11-21T13:18:27;11.70;99.70
13488;DHT22;6816;48.506;9.050;2022-11-21T13:21:47;11.60;99.90
13488;DHT22;6816;48.506;9.050;2022-11-21T13:27:48;11.70;99.90
13488;DHT22;6816;48.506;9.050;2022-11-21T13:30:50;11.70;99.90
13488;DHT22;6816;48.506;9.050;2022-11-21T13:33:52;11.70;99.90
13488;DHT22;6816;48.506;9.050;2022-11-21T13:36:52;11.70;99.90
13488;DHT22;6816;48.506;9.050;2022-11-21T13:43:26;11.60;99.00
13488;DHT22;6816;48.506;9.050;2022-11-21T13:46:56;11.60;99.90
13488;DHT22;6816;48.506;9.050;2022-11-21T13:50:24;11.50;99.20
13488;DHT22;6816;48.506;9.050;2022-11-21T14:00:02;11.30;99.90
13488;DHT22;6816;48.506;9.050;2022-11-21T14:06:38;11.30;99.90
13488;DHT22;6816;48.506;9.050;2022-11-21T14:09:46;11.30;99.90
13488;DHT22;6816;48.506;9.050;2022-11-21T14:12:48;11.30;99.90
13488;DHT22;6816;48.506;9.050;2022-11-21T14:16:19;11.30;99.90
13488;DHT22;6816;48.506;9.050;2022-11-21T14:19:24;11.30;99.90
13488;DHT22;6816;48.506;9.050;2022-11-21T14:26:03;11.30;99.90
13488;DHT22;6816;48.506;9.050;2022-11-21T14:29:36;11.30;99.90
13488;DHT22;6816;48.506;9.050;2022-11-21T14:32:37;11.30;99.60
13488;DHT22;6816;48.506;9.050;2022-11-21T14:35:38;11.20;99.90
13488;DHT22;6816;48.506;9.050;2022-11-21T14:38:48;11.20;99.90
13488;DHT22;6816;48.506;9.050;2022-11-21T14:41:51;11.20;99.90
13488;DHT22;6816;48.506;9.050;2022-11-21T14:45:14;11.10;99.90
13488;DHT22;6816;48.506;9.050;2022-11-21T14:48:24;11.10;99.60
13488;DHT22;6816;48.506;9.050;2022-11-21T14:51:26;11.00;99.90
13488;DHT22;6816;48.506;9.050;2022-11-21T14:54:32;11.00;99.90
13488;DHT22;6816;48.506;9.050;2022-11-21T14:57:40;10.90;99.90
13488;DHT22;6816;48.506;9.050;2022-11-21T15:01:02;10.90;99.90
13488;DHT22;6816;48.506;9.050;2022-11-21T15:04:06;10.90;99.60
13488;DHT22;6816;48.506;9.050;2022-11-21T15:10:21;10.60;99.90
13488;DHT22;6816;48.506;9.050;2022-11-21T15:13:25;10.60;99.90
13488;DHT22;6816;48.506;9.050;2022-11-21T15:16:28;10.40;99.90
13488;DHT22;6816;48.506;9.050;2022-11-21T15:19:29;10.40;99.90
13488;DHT22;6816;48.506;9.050;2022-11-21T15:22:36;10.30;99.90
13488;DHT22;6816;48.506;9.050;2022-11-21T15:25:45;10.30;99.80
13488;DHT22;6816;48.506;9.050;2022-11-21T15:28:54;10.10;99.30
13488;DHT22;6816;48.506;9.050;2022-11-21T15:32:08;10.00;99.70
13488;DHT22;6816;48.506;9.050;2022-11-21T15:39:10;9.80;99.00
13488;DHT22;6816;48.506;9.050;2022-11-21T15:45:30;9.60;99.30
13488;DHT22;6816;48.506;9.050;2022-11-21T15:48:31;9.50;99.90
13488;DHT22;6816;48.506;9.050;2022-11-21T15:51:34;9.40;99.90
13488;DHT22;6816;48.506;9.050;2022-11-21T15:54:35;9.30;99.90
13488;DHT22;6816;48.506;9.050;2022-11-21T15:57:35;9.20;99.90
13488;DHT22;6816;48.506;9.050;2022-11-21T16:00:36;9.20;99.90
13488;DHT22;6816;48.506;9.050;2022-11-21T16:03:36;9.00;99.90
13488;DHT22;6816;48.506;9.050;2022-11-21T16:06:37;8.90;99.90
13488;DHT22;6816;48.506;9.050;2022-11-21T16:09:38;8.80;99.90
13488;DHT22;6816;48.506;9.050;2022-11-21T16:12:40;8.70;99.90
13488;DHT22;6816;48.506;9.050;2022-11-21T16:15:41;8.60;99.90
13488;DHT22;6816;48.506;9.050;2022-11-21T16:18:41;8.50;99.90
13488;DHT22;6816;48.506;9.050;2022-11-21T16:21:42;8.40;99.90
13488;DHT22;6816;48.506;9.050;2022-11-21T16:24:43;8.30;99.90
13488;DHT22;6816;48.506;9.050;2022-11-21T16:27:43;8.20;99.90
13488;DHT22;6816;48.506;9.050;2022-11-21T16:30:44;8.10;99.90
13488;DHT22;6816;48.506;9.050;2022-11-21T16:33:44;8.00;99.90
13488;DHT22;6816;48.506;9.050;2022-11-21T16:36:45;8.00;99.90
13488;DHT22;6816;48.506;9.050;2022-11-21T16:39:46;7.90;99.90
13488;DHT22;6816;48.506;9.050;2022-11-21T16:42:51;7.80;99.90
13488;DHT22;6816;48.506;9.050;2022-11-21T16:45:54;7.70;99.90
13488;DHT22;6816;48.506;9.050;2022-11-21T16:49:00;7.70;99.90
13488;DHT22;6816;48.506;9.050;2022-11-21T16:52:01;7.60;99.90
13488;DHT22;6816;48.506;9.050;2022-11-21T16:55:02;7.50;99.90
13488;DHT22;6816;48.506;9.050;2022-11-21T16:58:03;7.50;99.90
13488;DHT22;6816;48.506;9.050;2022-11-21T17:01:12;7.40;99.90
13488;DHT22;6816;48.506;9.050;2022-11-21T17:04:13;7.40;99.90
13488;DHT22;6816;48.506;9.050;2022-11-21T17:07:13;7.30;99.90
13488;DHT22;6816;48.506;9.050;2022-11-21T17:10:14;7.30;99.90
13488;DHT22;6816;48.506;9.050;2022-11-21T17:13:15;7.20;99.90
13488;DHT22;6816;48.506;9.050;2022-11-21T17:16:17;7.20;99.90
13488;DHT22;6816;48.506;9.050;2022-11-21T17:19:18;7.20;99.90
13488;DHT22;6816;48.506;9.050;2022-11-21T17:22:19;7.10;99.90
13488;DHT22;6816;48.506;9.050;2022-11-21T17:25:20;7.20;99.90
13488;DHT22;6816;48.506;9.050;2022-11-21T17:28:20;7.00;99.90
13488;DHT22;6816;48.506;9.050;2022-11-21T17:31:21;7.20;99.90
13488;DHT22;6816;48.506;9.050;2022-11-21T17:34:22;7.00;99.90
13488;DHT22;6816;48.506;9.050;2022-11-21T17:37:23;7.00;99.90
13488;DHT22;6816;48.506;9.050;2022-11-21T17:40:23;7.00;99.90
13488;DHT22;6816;48.506;9.050;2022-11-21T17:43:24;6.90;99.90
13488;DHT22;6816;48.506;9.050;2022-11-21T17:46:25;6.90;99.90
13488;DHT22;6816;48.506;9.050;2022-11-21T17:49:26;6.90;99.90
13488;DHT22;6816;48.506;9.050;2022-11-21T17:52:29;6.80;99.90
13488;DHT22;6816;48.506;9.050;2022-11-21T17:55:29;6.80;99.90
13488;DHT22;6816;48.506;9.050;2022-11-21T17:58:30;6.80;99.90
13488;DHT22;6816;48.506;9.050;2022-11-21T18:01:32;6.90;99.90
13488;DHT22;6816;48.506;9.050;2022-11-21T18:04:33;6.90;99.90
13488;DHT22;6816;48.506;9.050;2022-11-21T18:07:38;6.90;99.90
13488;DHT22;6816;48.506;9.050;2022-11-21T18:10:38;6.90;99.90
13488;DHT22;6816;48.506;9.050;2022-11-21T18:13:39;7.00;99.90
13488;DHT22;6816;48.506;9.050;2022-11-21T18:16:40;7.00;99.90
13488;DHT22;6816;48.506;9.050;2022-11-21T18:19:41;7.00;99.90
13488;DHT22;6816;48.506;9.050;2022-11-21T18:22:42;7.10;99.90
13488;DHT22;6816;48.506;9.050;2022-11-21T18:25:45;7.10;99.90
13488;DHT22;6816;48.506;9.050;2022-11-21T18:28:47;7.10;99.90
13488;DHT22;6816;48.506;9.050;2022-11-21T18:31:48;7.20;99.90
13488;DHT22;6816;48.506;9.050;2022-11-21T18:34:49;7.20;99.90
13488;DHT22;6816;48.506;9.050;2022-11-21T18:37:49;7.30;99.90
13488;DHT22;6816;48.506;9.050;2022-11-21T18:40:50;7.20;99.90
13488;DHT22;6816;48.506;9.050;2022-11-21T18:43:59;7.20;99.90
13488;DHT22;6816;48.506;9.050;2022-11-21T18:47:00;7.30;99.90
13488;DHT22;6816;48.506;9.050;2022-11-21T18:50:01;7.30;99.90
13488;DHT22;6816;48.506;9.050;2022-11-21T18:53:01;7.30;99.90
13488;DHT22;6816;48.506;9.050;2022-11-21T18:56:07;7.20;99.90
13488;DHT22;6816;48.506;9.050;2022-11-21T18:59:08;7.20;99.90
13488;DHT22;6816;48.506;9.050;2022-11-21T19:02:08;7.20;99.90
13488;DHT22;6816;48.506;9.050;2022-11-21T19:05:09;7.30;99.90
13488;DHT22;6816;48.506;9.050;2022-11-21T19:08:10;7.20;99.90
13488;DHT22;6816;48.506;9.050;2022-11-21T19:11:12;7.20;99.90
13488;DHT22;6816;48.506;9.050;2022-11-21T19:14:13;7.10;99.90
13488;DHT22;6816;48.506;9.050;2022-11-21T19:17:14;7.10;99.90
13488;DHT22;6816;48.506;9.050;2022-11-21T19:20:14;7.10;99.90
13488;DHT22;6816;48.506;9.050;2022-11-21T19:23:15;7.10;99.90
13488;DHT22;6816;48.506;9.050;2022-11-21T19:26:17;7.10;99.90
13488;DHT22;6816;48.506;9.050;2022-11-21T19:29:20;7.10;99.90
13488;DHT22;6816;48.506;9.050;2022-11-21T19:32:21;7.20;99.90
13488;DHT22;6816;48.506;9.050;2022-11-21T19:35:22;7.10;99.90
13488;DHT22;6816;48.506;9.050;2022-11-21T19:38:23;7.10;99.90
13488;DHT22;6816;48.506;9.050;2022-11-21T19:41:24;7.20;99.90
13488;DHT22;6816;48.506;9.050;2022-11-21T19:44:26;7.20;99.90
13488;DHT22;6816;48.506;9.050;2022-11-21T19:47:26;7.20;99.90
13488;DHT22;6816;48.506;9.050;2022-11-21T19:50:27;7.20;99.90
13488;DHT22;6816;48.506;9.050;2022-11-21T19:53:32;7.20;99.90
13488;DHT22;6816;48.506;9.050;2022-11-21T19:56:33;7.20;99.90
13488;DHT22;6816;48.506;9.050;2022-11-21T19:59:34;7.20;99.90
13488;DHT22;6816;48.506;9.050;2022-11-21T20:02:35;7.20;99.90
13488;DHT22;6816;48.506;9.050;2022-11-21T20:05:36;7.20;99.90
13488;DHT22;6816;48.506;9.050;2022-11-21T20:08:37;7.20;99.90
13488;DHT22;6816;48.506;9.050;2022-11-21T20:11:39;7.30;99.90
13488;DHT22;6816;48.506;9.050;2022-11-21T20:14:40;7.20;99.90
13488;DHT22;6816;48.506;9.050;2022-11-21T20:17:41;7.20;99.90
13488;DHT22;6816;48.506;9.050;2022-11-21T20:20:41;7.20;99.90
13488;DHT22;6816;48.506;9.050;2022-11-21T20:23:42;7.30;99.90
13488;DHT22;6816;48.506;9.050;2022-11-21T20:26:45;7.20;99.90
13488;DHT22;6816;48.506;9.050;2022-11-21T20:29:46;7.20;99.90
13488;DHT22;6816;48.506;9.050;2022-11-21T20:32:46;7.20;99.90
13488;DHT22;6816;48.506;9.050;2022-11-21T20:35:47;7.30;99.90
13488;DHT22;6816;48.506;9.050;2022-11-21T20:38:55;7.30;99.90
13488;DHT22;6816;48.506;9.050;2022-11-21T20:41:57;7.30;99.90
13488;DHT22;6816;48.506;9.050;2022-11-21T20:44:57;7.30;99.90
13488;DHT22;6816;48.506;9.050;2022-11-21T20:47:58;7.30;99.90
13488;DHT22;6816;48.506;9.050;2022-11-21T20:50:58;7.30;99.90
13488;DHT22;6816;48.506;9.050;2022-11-21T20:53:59;7.50;99.90
13488;DHT22;6816;48.506;9.050;2022-11-21T20:57:00;7.30;99.90
13488;DHT22;6816;48.506;9.050;2022-11-21T21:00:00;7.30;99.90
13488;DHT22;6816;48.506;9.050;2022-11-21T21:03:01;7.40;99.90
13488;DHT22;6816;48.506;9.050;2022-11-21T21:06:07;7.30;99.90
13488;DHT22;6816;48.506;9.050;2022-11-21T21:09:08;7.40;99.90
13488;DHT22;6816;48.506;9.050;2022-11-21T21:12:08;7.40;99.90